createdAt,value
2019-04-11T00:01:08.239Z,7.97
2019-04-11T00:03:37.619Z,5.43
2019-04-11T00:06:07.428Z,5.57
2019-04-11T00:08:37.137Z,6.73
2019-04-11T00:11:06.042Z,10.33
2019-04-11T00:13:36.323Z,6.57
2019-04-11T00:16:04.810Z,6.07
2019-04-11T00:18:34.511Z,6.10
2019-04-11T00:21:02.973Z,7.20
2019-04-11T00:23:32.373Z,6.33
2019-04-11T00:26:02.063Z,11.50
2019-04-11T00:28:30.599Z,6.93
2019-04-11T00:30:59.002Z,6.40
2019-04-11T00:33:27.414Z,7.40
2019-04-11T00:35:55.819Z,6.53
2019-04-11T00:38:24.215Z,6.47
2019-04-11T00:40:53.306Z,8.43
2019-04-11T00:43:30.855Z,6.67
2019-04-11T00:45:51.947Z,6.87
2019-04-11T00:48:20.382Z,8.60
2019-04-11T00:50:49.623Z,8.23
2019-04-11T00:53:18.988Z,9.17
2019-04-11T00:55:48.150Z,6.87
2019-04-11T00:58:17.163Z,7.00
2019-04-11T01:00:45.626Z,8.40
2019-04-11T01:03:14.096Z,7.67
2019-04-11T01:05:42.603Z,11.03
2019-04-11T01:08:11.462Z,9.37
2019-04-11T01:10:40.018Z,7.00
2019-04-11T01:13:09.220Z,11.77
2019-04-11T01:15:40.687Z,10.57
2019-04-11T01:18:09.753Z,14.03
2019-04-11T01:20:38.227Z,9.60
2019-04-11T01:23:06.860Z,12.90
2019-04-11T01:25:35.346Z,11.70
2019-04-11T01:28:04.649Z,17.60
2019-04-11T01:30:38.790Z,18.50
2019-04-11T01:33:07.302Z,16.33
2019-04-11T01:35:35.712Z,13.70
2019-04-11T01:38:04.123Z,11.53
2019-04-11T01:40:32.516Z,17.23
2019-04-11T01:43:01.890Z,18.10
2019-04-11T01:45:31.579Z,18.57
2019-04-11T01:48:01.718Z,13.57
2019-04-11T01:50:30.992Z,20.47
2019-04-11T01:53:00.471Z,18.90
2019-04-11T01:55:29.014Z,20.03
2019-04-11T01:57:58.257Z,22.40
2019-04-11T02:00:44.830Z,21.80
2019-04-11T02:03:15.012Z,22.73
2019-04-11T02:05:43.622Z,20.37
2019-04-11T02:08:13.223Z,16.70
2019-04-11T02:10:41.790Z,14.57
2019-04-11T02:13:10.196Z,12.60
2019-04-11T02:15:38.726Z,10.30
2019-04-11T02:18:07.594Z,12.50
2019-04-11T02:20:36.900Z,10.87
2019-04-11T02:23:10.884Z,13.97
2019-04-11T02:25:47.053Z,19.97
2019-04-11T02:28:17.038Z,15.67
2019-04-11T02:30:48.457Z,15.87
2019-04-11T02:33:18.410Z,16.97
2019-04-11T02:35:49.345Z,18.63
2019-04-11T02:38:18.955Z,24.93
2019-04-11T02:40:49.797Z,18.40
2019-04-11T02:43:18.056Z,14.53
2019-04-11T02:46:01.745Z,16.87
2019-04-11T02:48:18.273Z,15.33
2019-04-11T02:50:47.821Z,15.20
2019-04-11T02:53:16.970Z,12.77
2019-04-11T02:55:46.787Z,15.13
2019-04-11T02:58:15.527Z,18.73
2019-04-11T03:00:44.884Z,12.23
2019-04-11T03:03:15.092Z,12.03
2019-04-11T03:05:44.566Z,10.10
2019-04-11T03:08:18.425Z,9.33
2019-04-11T03:10:45.528Z,13.13
2019-04-11T03:13:16.593Z,10.53
2019-04-11T03:16:02.185Z,8.60
2019-04-11T03:18:39.073Z,11.00
2019-04-11T03:20:53.180Z,11.93
2019-04-11T03:23:20.601Z,10.53
2019-04-11T03:25:48.930Z,11.17
2019-04-11T03:28:22.636Z,14.67
2019-04-11T03:31:24.472Z,13.57
2019-04-11T03:34:12.735Z,11.33
2019-04-11T03:36:41.744Z,11.20
2019-04-11T03:38:42.700Z,9.40
2019-04-11T03:41:04.346Z,9.80
2019-04-11T03:43:32.999Z,10.67
2019-04-11T03:46:11.755Z,11.20
2019-04-11T03:48:33.388Z,13.90
2019-04-11T03:50:54.231Z,10.90
2019-04-11T03:53:23.521Z,13.33
2019-04-11T03:55:53.490Z,13.80
2019-04-11T03:58:23.825Z,11.47
2019-04-11T04:00:56.781Z,16.90
2019-04-11T04:03:24.596Z,13.63
2019-04-11T04:05:55.282Z,11.50
2019-04-11T04:08:25.156Z,10.67
2019-04-11T04:11:14.698Z,13.67
2019-04-11T04:13:45.610Z,11.80
2019-04-11T04:16:40.389Z,14.67
2019-04-11T04:19:13.019Z,13.17
2019-04-11T04:21:44.318Z,12.07
2019-04-11T04:24:29.981Z,13.10
2019-04-11T04:27:00.951Z,13.67
2019-04-11T04:29:29.324Z,17.50
2019-04-11T04:31:59.527Z,20.30
2019-04-11T04:34:28.473Z,17.90
2019-04-11T04:36:57.887Z,16.77
2019-04-11T04:39:27.289Z,17.63
2019-04-11T04:42:05.827Z,19.13
2019-04-11T04:44:27.276Z,13.80
2019-04-11T04:47:10.213Z,15.63
2019-04-11T04:49:25.838Z,14.17
2019-04-11T04:51:55.727Z,12.93
2019-04-11T04:54:24.583Z,15.53
2019-04-11T04:56:54.471Z,14.47
2019-04-11T04:59:23.645Z,12.27
2019-04-11T05:01:53.370Z,12.43
2019-04-11T05:04:23.469Z,13.63
2019-04-11T05:06:53.052Z,13.97
2019-04-11T05:09:23.515Z,12.60
2019-04-11T05:11:53.076Z,12.33
2019-04-11T05:14:23.192Z,10.97
2019-04-11T05:16:52.581Z,13.10
2019-04-11T05:19:22.195Z,12.00
2019-04-11T05:21:52.007Z,13.87
2019-04-11T05:24:20.858Z,11.23
2019-04-11T05:26:50.340Z,9.63
2019-04-11T05:29:19.590Z,18.20
2019-04-11T05:31:49.111Z,25.43
2019-04-11T05:34:18.302Z,21.13
2019-04-11T05:36:47.182Z,17.00
2019-04-11T05:39:17.407Z,16.93
2019-04-11T05:41:47.127Z,16.77
2019-04-11T05:44:16.741Z,15.07
2019-04-11T05:46:53.248Z,17.43
2019-04-11T05:49:17.405Z,13.07
2019-04-11T05:51:47.705Z,11.87
2019-04-11T05:54:16.560Z,15.80
2019-04-11T05:56:46.535Z,15.43
2019-04-11T05:59:17.224Z,11.43
2019-04-11T06:01:48.872Z,14.33
2019-04-11T06:04:28.220Z,11.77
2019-04-11T06:06:58.426Z,10.83
2019-04-11T06:09:32.973Z,10.77
2019-04-11T06:12:06.042Z,13.03
2019-04-11T06:14:41.983Z,11.60
2019-04-11T06:17:12.048Z,12.70
2019-04-11T06:19:42.115Z,11.93
2019-04-11T06:22:10.860Z,13.13
2019-04-11T06:24:44.448Z,10.03
2019-04-11T06:27:22.069Z,13.83
2019-04-11T06:30:03.904Z,12.00
2019-04-11T06:32:50.513Z,9.50
2019-04-11T06:35:20.582Z,10.83
2019-04-11T06:37:50.627Z,9.13
2019-04-11T06:40:23.365Z,9.97
2019-04-11T06:42:56.231Z,10.87
2019-04-11T06:45:38.067Z,12.20
2019-04-11T06:48:22.262Z,8.70
2019-04-11T06:50:51.690Z,12.90
2019-04-11T06:53:21.163Z,10.13
2019-04-11T06:55:51.223Z,10.37
2019-04-11T06:58:21.514Z,10.10
2019-04-11T07:00:51.784Z,8.97
2019-04-11T07:03:30.203Z,8.30
2019-04-11T07:05:59.418Z,10.47
2019-04-11T07:08:30.041Z,9.83
2019-04-11T07:11:02.966Z,10.47
2019-04-11T07:13:37.070Z,10.50
2019-04-11T07:16:05.684Z,9.03
2019-04-11T07:18:42.059Z,13.60
2019-04-11T07:21:11.556Z,11.63
2019-04-11T07:23:57.903Z,8.23
2019-04-11T07:26:33.705Z,9.17
2019-04-11T07:29:13.017Z,10.50
2019-04-11T07:32:01.119Z,9.10
2019-04-11T07:34:47.729Z,14.70
2019-04-11T07:37:34.528Z,8.80
2019-04-11T07:40:15.301Z,9.30
2019-04-11T07:43:05.838Z,11.37
2019-04-11T07:45:49.051Z,11.30
2019-04-11T07:48:19.381Z,9.47
2019-04-11T07:50:48.789Z,10.67
2019-04-11T07:53:19.736Z,9.33
2019-04-11T07:55:48.202Z,9.63
2019-04-11T07:58:19.778Z,10.77
2019-04-11T08:00:54.300Z,10.13
2019-04-11T08:03:30.396Z,9.10
2019-04-11T08:06:05.912Z,12.10
2019-04-11T08:08:47.899Z,8.33
2019-04-11T08:11:18.026Z,8.77
2019-04-11T08:14:04.295Z,11.77
2019-04-11T08:16:35.055Z,13.20
2019-04-11T08:19:07.967Z,9.37
2019-04-11T08:21:54.602Z,9.10
2019-04-11T08:24:41.081Z,9.17
2019-04-11T08:27:27.548Z,10.03
2019-04-11T08:30:00.540Z,10.13
2019-04-11T08:32:46.438Z,10.47
2019-04-11T08:35:34.593Z,9.33
2019-04-11T08:38:10.145Z,9.30
2019-04-11T08:40:53.361Z,11.67
2019-04-11T08:43:32.730Z,10.43
2019-04-11T08:46:06.707Z,10.77
2019-04-11T08:48:53.058Z,11.53
2019-04-11T08:51:25.638Z,8.20
2019-04-11T08:54:07.394Z,9.87
2019-04-11T08:56:37.456Z,8.63
2019-04-11T08:59:29.341Z,8.37
2019-04-11T09:01:57.866Z,8.47
2019-04-11T09:04:46.508Z,8.20
2019-04-11T09:07:17.061Z,9.33
2019-04-11T09:10:04.082Z,8.00
2019-04-11T09:12:32.599Z,10.50
2019-04-11T09:15:12.704Z,10.70
2019-04-11T09:17:55.185Z,9.50
2019-04-11T09:20:21.396Z,8.63
2019-04-11T09:22:51.679Z,11.33
2019-04-11T09:25:39.046Z,9.47
2019-04-11T09:28:19.550Z,8.63
2019-04-11T09:30:52.837Z,8.80
2019-04-11T09:33:41.446Z,8.70
2019-04-11T09:36:15.522Z,9.70
2019-04-11T09:38:52.762Z,8.57
2019-04-11T09:41:38.690Z,8.27
2019-04-11T09:44:08.907Z,8.90
2019-04-11T09:46:54.969Z,8.17
2019-04-11T09:49:31.087Z,11.93
2019-04-11T09:52:07.285Z,7.90
2019-04-11T09:54:37.692Z,8.30
2019-04-11T09:57:07.896Z,8.00
2019-04-11T09:59:47.645Z,9.07
2019-04-11T10:02:35.305Z,8.17
2019-04-11T10:05:07.387Z,9.37
2019-04-11T10:07:54.513Z,7.60
2019-04-11T10:10:30.885Z,9.20
2019-04-11T10:13:18.607Z,7.83
2019-04-11T10:16:05.352Z,8.87
2019-04-11T10:18:44.395Z,7.57
2019-04-11T10:21:15.247Z,7.80
2019-04-11T10:23:45.356Z,7.47
2019-04-11T10:26:14.055Z,7.90
2019-04-11T10:28:49.708Z,7.33
2019-04-11T10:31:18.227Z,7.40
2019-04-11T10:34:06.481Z,8.03
2019-04-11T10:36:36.970Z,7.70
2019-04-11T10:39:15.288Z,7.60
2019-04-11T10:41:46.302Z,7.77
2019-04-11T10:44:17.997Z,7.57
2019-04-11T10:46:51.513Z,8.63
2019-04-11T10:49:38.472Z,8.93
2019-04-11T10:52:18.204Z,8.57
2019-04-11T10:54:49.170Z,7.63
2019-04-11T10:57:27.841Z,8.47
2019-04-11T10:59:56.574Z,7.53
2019-04-11T11:02:41.856Z,9.07
2019-04-11T11:05:12.785Z,9.40
2019-04-11T11:07:42.921Z,9.07
2019-04-11T11:10:19.569Z,8.60
2019-04-11T11:13:01.485Z,7.63
2019-04-11T11:15:31.706Z,8.63
2019-04-11T11:18:39.812Z,8.60
2019-04-11T11:20:55.116Z,8.27
2019-04-11T11:23:39.162Z,8.17
2019-04-11T11:26:09.376Z,8.43
2019-04-11T11:28:46.620Z,8.30
2019-04-11T11:31:20.306Z,8.23
2019-04-11T11:33:50.981Z,9.43
2019-04-11T11:36:21.416Z,7.97
2019-04-11T11:39:08.808Z,7.80
2019-04-11T11:41:55.201Z,9.57
2019-04-11T11:44:25.244Z,7.43
2019-04-11T11:47:05.485Z,9.50
2019-04-11T11:49:46.771Z,8.70
2019-04-11T11:52:06.733Z,9.80
2019-04-11T11:54:37.787Z,9.33
2019-04-11T11:57:08.689Z,7.87
2019-04-11T11:59:42.821Z,8.17
2019-04-11T12:02:18.282Z,9.60
2019-04-11T12:04:48.548Z,7.70
2019-04-11T12:07:19.018Z,8.27
2019-04-11T12:10:05.238Z,7.83
2019-04-11T12:12:44.194Z,8.67
2019-04-11T12:15:32.974Z,7.40
2019-04-11T12:18:20.369Z,7.80
2019-04-11T12:20:54.214Z,7.60
2019-04-11T12:23:26.270Z,8.30
2019-04-11T12:25:55.718Z,7.53
2019-04-11T12:28:25.926Z,7.10
2019-04-11T12:31:00.563Z,9.30
2019-04-11T12:33:30.682Z,7.17
2019-04-11T12:36:06.706Z,7.93
2019-04-11T12:38:36.751Z,7.43
2019-04-11T12:41:06.800Z,7.57
2019-04-11T12:43:39.302Z,7.50
2019-04-11T12:46:30.062Z,11.73
2019-04-11T12:48:57.478Z,8.77
2019-04-11T12:51:43.933Z,7.43
2019-04-11T12:54:13.103Z,7.57
2019-04-11T12:56:52.131Z,7.30
2019-04-11T12:59:20.534Z,7.87
2019-04-11T13:02:06.771Z,8.47
2019-04-11T13:04:35.240Z,8.23
2019-04-11T13:07:17.576Z,9.13
2019-04-11T13:09:53.564Z,7.40
2019-04-11T13:12:29.604Z,7.47
2019-04-11T13:15:05.331Z,6.83
2019-04-11T13:17:35.387Z,7.47
2019-04-11T13:20:23.788Z,7.17
2019-04-11T13:22:53.832Z,7.33
2019-04-11T13:25:40.076Z,8.17
2019-04-11T13:28:09.030Z,8.53
2019-04-11T13:30:41.847Z,8.73
2019-04-11T13:33:12.065Z,8.93
2019-04-11T13:35:58.634Z,8.17
2019-04-11T13:38:31.209Z,8.17
2019-04-11T13:41:20.096Z,7.53
2019-04-11T13:43:49.396Z,8.93
2019-04-11T13:46:19.522Z,8.93
2019-04-11T13:49:01.894Z,8.17
2019-04-11T13:51:31.943Z,10.77
2019-04-11T13:54:19.107Z,8.30
2019-04-11T13:57:05.296Z,8.30
2019-04-11T13:59:35.687Z,7.57
2019-04-11T14:02:14.982Z,9.67
2019-04-11T14:04:45.575Z,8.53
2019-04-11T14:07:21.264Z,11.63
2019-04-11T14:09:52.675Z,8.60
2019-04-11T14:12:22.419Z,10.57
2019-04-11T14:14:52.052Z,7.70
2019-04-11T14:17:22.222Z,8.43
2019-04-11T14:19:55.214Z,8.60
2019-04-11T14:22:28.984Z,8.47
2019-04-11T14:24:57.019Z,7.67
2019-04-11T14:27:27.103Z,10.67
2019-04-11T14:30:00.326Z,7.87
2019-04-11T14:32:30.439Z,9.73
2019-04-11T14:35:15.819Z,8.40
2019-04-11T14:37:48.574Z,9.40
2019-04-11T14:40:30.566Z,8.57
2019-04-11T14:43:16.952Z,9.60
2019-04-11T14:45:49.683Z,7.70
2019-04-11T14:48:19.715Z,7.80
2019-04-11T14:50:59.047Z,9.73
2019-04-11T14:53:46.625Z,8.33
2019-04-11T14:56:17.295Z,8.00
2019-04-11T14:59:03.610Z,9.30
2019-04-11T15:01:32.202Z,7.33
2019-04-11T15:04:05.218Z,7.70
2019-04-11T15:06:44.549Z,8.70
2019-04-11T15:09:16.892Z,7.40
2019-04-11T15:11:50.192Z,8.33
2019-04-11T15:14:32.141Z,7.03
2019-04-11T15:17:11.147Z,8.13
2019-04-11T15:19:41.186Z,8.10
2019-04-11T15:22:20.295Z,10.90
2019-04-11T15:24:50.334Z,8.97
2019-04-11T15:27:38.544Z,8.60
2019-04-11T15:30:16.677Z,10.77
2019-04-11T15:33:02.625Z,10.43
2019-04-11T15:35:31.023Z,6.97
2019-04-11T15:38:17.326Z,8.17
2019-04-11T15:40:46.701Z,7.20
2019-04-11T15:43:22.263Z,7.20
2019-04-11T15:45:52.302Z,11.53
2019-04-11T15:48:28.190Z,8.33
2019-04-11T15:51:15.250Z,7.27
2019-04-11T15:53:47.942Z,7.53
2019-04-11T15:56:37.853Z,7.73
2019-04-11T15:59:08.633Z,10.63
2019-04-11T16:01:45.020Z,7.50
2019-04-11T16:04:30.045Z,9.03
2019-04-11T16:07:13.005Z,7.23
2019-04-11T16:09:46.314Z,7.70
2019-04-11T16:12:19.042Z,7.13
2019-04-11T16:15:05.431Z,7.97
2019-04-11T16:17:51.857Z,7.17
2019-04-11T16:20:20.531Z,7.00
2019-04-11T16:22:55.356Z,7.40
2019-04-11T16:25:23.743Z,7.60
2019-04-11T16:27:53.814Z,9.77
2019-04-11T16:30:23.526Z,9.30
2019-04-11T16:32:56.601Z,6.90
2019-04-11T16:35:42.875Z,7.80
2019-04-11T16:38:31.258Z,6.83
2019-04-11T16:41:17.638Z,8.83
2019-04-11T16:43:47.678Z,7.13
2019-04-11T16:46:34.302Z,8.77
2019-04-11T16:49:02.704Z,6.80
2019-04-11T16:51:31.449Z,8.27
2019-04-11T16:54:00.052Z,7.33
2019-04-11T16:56:28.526Z,6.43
2019-04-11T16:58:56.945Z,9.80
2019-04-11T17:01:25.338Z,8.87
2019-04-11T17:03:55.072Z,7.13
2019-04-11T17:06:34.487Z,9.40
2019-04-11T17:09:07.352Z,10.03
2019-04-11T17:11:35.760Z,8.73
2019-04-11T17:14:04.404Z,7.63
2019-04-11T17:16:32.873Z,8.80
2019-04-11T17:19:05.185Z,9.80
2019-04-11T17:21:42.478Z,12.80
2019-04-11T17:24:01.599Z,19.80
2019-04-11T17:26:30.016Z,8.97
2019-04-11T17:28:58.417Z,7.23
2019-04-11T17:31:26.808Z,7.70
2019-04-11T17:33:56.614Z,7.77
2019-04-11T17:36:25.231Z,6.97
2019-04-11T17:38:53.630Z,7.70
2019-04-11T17:41:22.063Z,9.10
2019-04-11T17:43:51.773Z,7.20
2019-04-11T17:46:20.523Z,8.20
2019-04-11T17:48:50.425Z,6.93
2019-04-11T17:51:19.049Z,7.10
2019-04-11T17:53:47.675Z,7.73
2019-04-11T17:56:16.098Z,10.03
2019-04-11T17:58:44.805Z,10.00
2019-04-11T18:01:13.370Z,9.20
2019-04-11T18:03:42.607Z,8.30
2019-04-11T18:06:11.099Z,6.70
2019-04-11T18:08:39.495Z,6.67
2019-04-11T18:11:08.038Z,9.67
2019-04-11T18:13:36.434Z,6.87
2019-04-11T18:16:05.050Z,7.17
2019-04-11T18:18:35.168Z,7.63
2019-04-11T18:21:07.104Z,7.90
2019-04-11T18:23:35.919Z,13.33
2019-04-11T18:26:04.422Z,7.37
2019-04-11T18:28:32.814Z,6.83
2019-04-11T18:31:01.212Z,6.60
2019-04-11T18:33:31.710Z,6.77
2019-04-11T18:36:02.265Z,6.97
2019-04-11T18:38:32.159Z,7.73
2019-04-11T18:41:01.066Z,8.07
2019-04-11T18:43:29.533Z,8.90
2019-04-11T18:45:58.003Z,8.43
2019-04-11T18:48:26.404Z,6.70
2019-04-11T18:50:54.804Z,6.27
2019-04-11T18:53:23.211Z,7.20
2019-04-11T18:55:51.615Z,7.03
2019-04-11T18:58:20.007Z,9.20
2019-04-11T19:00:48.490Z,8.53
2019-04-11T19:03:17.054Z,8.07
2019-04-11T19:05:45.519Z,10.03
2019-04-11T19:08:14.088Z,7.73
2019-04-11T19:10:42.876Z,8.23
2019-04-11T19:13:16.668Z,9.00
2019-04-11T19:15:45.519Z,8.50
2019-04-11T19:18:15.921Z,8.70
2019-04-11T19:20:43.363Z,8.43
2019-04-11T19:23:11.762Z,6.37
2019-04-11T19:25:44.515Z,8.90
2019-04-11T19:28:10.287Z,8.63
2019-04-11T19:30:38.710Z,7.07
2019-04-11T19:33:07.111Z,8.10
2019-04-11T19:35:35.508Z,8.57
2019-04-11T19:38:04.311Z,7.17
2019-04-11T19:40:32.930Z,8.13
2019-04-11T19:43:01.323Z,7.10
2019-04-11T19:45:30.063Z,6.50
2019-04-11T19:47:58.457Z,8.63
2019-04-11T19:50:29.099Z,7.03
2019-04-11T19:52:56.990Z,7.37
2019-04-11T19:55:29.450Z,6.53
2019-04-11T19:57:57.847Z,7.40
2019-04-11T20:00:26.295Z,6.83
2019-04-11T20:02:54.797Z,12.43
2019-04-11T20:05:24.570Z,8.03
2019-04-11T20:07:52.980Z,10.40
2019-04-11T20:10:21.378Z,9.63
2019-04-11T20:12:49.779Z,8.00
2019-04-11T20:15:18.184Z,8.20
2019-04-11T20:17:51.161Z,8.17
2019-04-11T20:20:16.707Z,6.63
2019-04-11T20:22:45.116Z,7.80
2019-04-11T20:25:15.951Z,7.40
2019-04-11T20:27:43.661Z,7.37
2019-04-11T20:30:12.446Z,9.17
2019-04-11T20:32:40.502Z,11.10
2019-04-11T20:35:10.162Z,14.07
2019-04-11T20:37:39.836Z,12.83
2019-04-11T20:40:08.965Z,12.40
2019-04-11T20:42:37.367Z,15.47
2019-04-11T20:45:06.112Z,14.87
2019-04-11T20:47:34.570Z,16.10
2019-04-11T20:50:07.325Z,17.17
2019-04-11T20:52:33.417Z,12.30
2019-04-11T20:55:01.856Z,18.63
2019-04-11T20:57:30.290Z,13.87
2019-04-11T20:59:58.942Z,15.13
2019-04-11T21:02:29.047Z,11.77
2019-04-11T21:04:58.905Z,12.33
2019-04-11T21:07:31.604Z,10.87
2019-04-11T21:09:57.732Z,8.80
2019-04-11T21:12:26.125Z,7.63
2019-04-11T21:14:54.537Z,8.53
2019-04-11T21:17:22.931Z,7.53
2019-04-11T21:19:53.342Z,9.20
2019-04-11T21:22:24.029Z,12.13
2019-04-11T21:24:51.625Z,11.70
2019-04-11T21:27:20.023Z,15.53
2019-04-11T21:29:48.507Z,11.57
2019-04-11T21:32:16.908Z,13.50
2019-04-11T21:34:45.306Z,8.90
2019-04-11T21:37:13.708Z,10.23
2019-04-11T21:39:42.102Z,9.87
2019-04-11T21:42:10.510Z,10.33
2019-04-11T21:44:38.906Z,11.50
2019-04-11T21:47:07.968Z,10.00
2019-04-11T21:49:37.025Z,12.83
2019-04-11T21:52:06.172Z,13.37
2019-04-11T21:54:34.562Z,13.07
2019-04-11T21:57:02.962Z,11.43
2019-04-11T21:59:31.364Z,8.70
2019-04-11T22:01:59.838Z,9.60
2019-04-11T22:04:31.013Z,9.17
2019-04-11T22:07:00.724Z,11.33
2019-04-11T22:09:28.474Z,9.03
2019-04-11T22:11:56.870Z,9.67
2019-04-11T22:14:25.290Z,9.13
2019-04-11T22:16:55.020Z,10.63
2019-04-11T22:19:23.836Z,11.17
2019-04-11T22:21:52.283Z,10.30
2019-04-11T22:24:20.722Z,9.23
2019-04-11T22:26:50.603Z,9.63
2019-04-11T22:29:19.256Z,8.33
2019-04-11T22:31:47.646Z,9.50
2019-04-11T22:34:17.759Z,11.70
2019-04-11T22:36:46.225Z,9.20
2019-04-11T22:39:14.618Z,8.07
2019-04-11T22:41:43.015Z,10.33
2019-04-11T22:44:11.426Z,10.73
2019-04-11T22:46:39.826Z,10.83
2019-04-11T22:49:08.849Z,9.43
2019-04-11T22:51:42.708Z,8.70
2019-04-11T22:54:08.035Z,11.07
2019-04-11T22:56:36.435Z,10.03
2019-04-11T22:59:04.851Z,10.00
2019-04-11T23:01:33.246Z,9.43
2019-04-11T23:04:02.328Z,11.23
2019-04-11T23:06:30.734Z,10.53
2019-04-11T23:08:59.137Z,10.37
2019-04-11T23:11:27.518Z,9.10
2019-04-11T23:13:55.925Z,9.63
2019-04-11T23:16:24.406Z,10.97
2019-04-11T23:18:52.807Z,10.03
2019-04-11T23:21:21.209Z,10.63
2019-04-11T23:23:49.614Z,11.67
2019-04-11T23:26:18.014Z,9.33
2019-04-11T23:28:46.940Z,9.47
2019-04-11T23:31:19.947Z,9.13
2019-04-11T23:33:46.303Z,12.60
2019-04-11T23:36:14.699Z,8.50
2019-04-11T23:38:43.102Z,10.77
2019-04-11T23:41:11.518Z,10.40
2019-04-11T23:43:39.898Z,11.80
2019-04-11T23:46:08.306Z,8.93
2019-04-11T23:48:36.690Z,8.57
2019-04-11T23:51:05.097Z,10.53
2019-04-11T23:53:33.490Z,12.60
2019-04-11T23:56:02.058Z,9.43
2019-04-11T23:58:32.121Z,8.20
